地図

経路データ

SID SEASON NUMBER BASIN SUBBASIN NAME ISO_TIME NATURE LAT LON WMO_WIND WMO_PRES WMO_AGENCY TRACK_TYPE DIST2LAND LANDFALL IFLAG USA_AGENCY USA_ATCF_ID USA_LAT USA_LON USA_RECORD USA_STATUS USA_WIND USA_PRES USA_SSHS USA_R34_NE USA_R34_SE USA_R34_SW USA_R34_NW USA_R50_NE USA_R50_SE USA_R50_SW USA_R50_NW USA_R64_NE USA_R64_SE USA_R64_SW USA_R64_NW USA_POCI USA_ROCI USA_RMW USA_EYE TOKYO_LAT TOKYO_LON TOKYO_GRADE TOKYO_WIND TOKYO_PRES TOKYO_R50_DIR TOKYO_R50_LONG TOKYO_R50_SHORT TOKYO_R30_DIR TOKYO_R30_LONG TOKYO_R30_SHORT TOKYO_LAND CMA_LAT CMA_LON CMA_CAT CMA_WIND CMA_PRES HKO_LAT HKO_LON HKO_CAT HKO_WIND HKO_PRES NEWDELHI_LAT NEWDELHI_LON NEWDELHI_GRADE NEWDELHI_WIND NEWDELHI_PRES NEWDELHI_CI NEWDELHI_DP NEWDELHI_POCI REUNION_LAT REUNION_LON REUNION_TYPE REUNION_WIND REUNION_PRES REUNION_TNUM REUNION_CI REUNION_RMW REUNION_R34_NE REUNION_R34_SE REUNION_R34_SW REUNION_R34_NW REUNION_R50_NE REUNION_R50_SE REUNION_R50_SW REUNION_R50_NW REUNION_R64_NE REUNION_R64_SE REUNION_R64_SW REUNION_R64_NW BOM_LAT BOM_LON BOM_TYPE BOM_WIND BOM_PRES BOM_TNUM BOM_CI BOM_RMW BOM_R34_NE BOM_R34_SE BOM_R34_SW BOM_R34_NW BOM_R50_NE BOM_R50_SE BOM_R50_SW BOM_R50_NW BOM_R64_NE BOM_R64_SE BOM_R64_SW BOM_R64_NW BOM_ROCI BOM_POCI BOM_EYE BOM_POS_METHOD BOM_PRES_METHOD NADI_LAT NADI_LON NADI_CAT NADI_WIND NADI_PRES WELLINGTON_LAT WELLINGTON_LON WELLINGTON_WIND WELLINGTON_PRES DS824_LAT DS824_LON DS824_STAGE DS824_WIND DS824_PRES TD9636_LAT TD9636_LON TD9636_STAGE TD9636_WIND TD9636_PRES TD9635_LAT TD9635_LON TD9635_WIND TD9635_PRES TD9635_ROCI NEUMANN_LAT NEUMANN_LON NEUMANN_CLASS NEUMANN_WIND NEUMANN_PRES MLC_LAT MLC_LON MLC_CLASS MLC_WIND MLC_PRES USA_GUST BOM_GUST BOM_GUST_PER REUNION_GUST REUNION_GUST_PER USA_SEAHGT USA_SEARAD_NE USA_SEARAD_SE USA_SEARAD_SW USA_SEARAD_NW STORM_SPEED STORM_DIR
1909080S10062 1909 20 SI MM NOT_NAMED 1909-03-21 06:00:00 NR -10.4000 62.2000 reunion main 1188 1188 _____O________ -1 -10.4000 62.2000 99 9.90000 1 88
1909080S10062 1909 20 SI MM NOT_NAMED 1909-03-21 09:00:00 NR -10.3989 62.2486 main 1188 1188 _____P________ -1 -10.3989 62.2486 99 1 90
1909080S10062 1909 20 SI MM NOT_NAMED 1909-03-21 12:00:00 NR -10.4002 62.2854 main 1192 1192 _____P________ -1 -10.4002 62.2854 99 0 98
1909080S10062 1909 20 SI MM NOT_NAMED 1909-03-21 15:00:00 NR -10.4065 62.2986 main 1192 1192 _____P________ -1 -10.4065 62.2986 99 0 0
1909080S10062 1909 20 SI MM NOT_NAMED 1909-03-21 18:00:00 NR -10.4204 62.2766 main 1192 1188 _____P________ -1 -10.4204 62.2766 99 1 247
1909080S10062 1909 20 SI MM NOT_NAMED 1909-03-21 21:00:00 NR -10.4442 62.2076 main 1188 1173 _____P________ -1 -10.4442 62.2076 99 2 253
1909080S10062 1909 20 SI MM NOT_NAMED 1909-03-22 00:00:00 NR -10.4805 62.0797 main 1173 1164 _____P________ -1 -10.4805 62.0797 99 3 255
1909080S10062 1909 20 SI MM NOT_NAMED 1909-03-22 03:00:00 NR -10.5316 61.8811 main 1164 1142 _____P________ -1 -10.5316 61.8811 99 5 256
1909080S10062 1909 20 SI MM NOT_NAMED 1909-03-22 06:00:00 NR -10.6000 61.6000 reunion main 1142 1120 _____O________ -1 -10.6000 61.6000 99 9.90000 7 256
1909080S10062 1909 20 SI MM NOT_NAMED 1909-03-22 09:00:00 NR -10.6870 61.2290 main 1116 1092 _____P________ -1 -10.6870 61.2290 99 8 257
1909080S10062 1909 20 SI MM NOT_NAMED 1909-03-22 12:00:00 NR -10.7905 60.7792 main 1092 1066 _____P________ -1 -10.7905 60.7792 99 10 257
1909080S10062 1909 20 SI MM NOT_NAMED 1909-03-22 15:00:00 NR -10.9077 60.2660 main 1066 1040 _____P________ -1 -10.9077 60.2660 99 11 257
1909080S10062 1909 20 SI MM NOT_NAMED 1909-03-22 18:00:00 NR -11.0356 59.7053 main 1040 1007 _____P________ -1 -11.0356 59.7053 99 12 257
1909080S10062 1909 20 SI MM NOT_NAMED 1909-03-22 21:00:00 NR -11.1714 59.1125 main 1007 953 _____P________ -1 -11.1714 59.1125 99 12 257
1909080S10062 1909 20 SI MM NOT_NAMED 1909-03-23 00:00:00 NR -11.3124 58.5036 main 953 887 _____P________ -1 -11.3124 58.5036 99 12 257
1909080S10062 1909 20 SI MM NOT_NAMED 1909-03-23 03:00:00 NR -11.4561 57.8942 main 884 818 _____P________ -1 -11.4561 57.8942 99 12 256
1909080S10062 1909 20 SI MM NOT_NAMED 1909-03-23 06:00:00 NR -11.6000 57.3000 reunion main 818 762 _____O________ -1 -11.6000 57.3000 99 9.90000 11 256
1909080S10062 1909 20 SI MM NOT_NAMED 1909-03-23 09:00:00 NR -11.7364 56.7633 main 762 704 _____P________ -1 -11.7364 56.7633 99 11 255
1909080S10062 1909 20 SI MM NOT_NAMED 1909-03-23 12:00:00 NR -11.8756 56.2301 main 693 638 _____P________ -1 -11.8756 56.2301 99 11 255
1909080S10062 1909 20 SI MM NOT_NAMED 1909-03-23 15:00:00 NR -12.0163 55.7039 main 638 582 _____P________ -1 -12.0163 55.7039 99 11 255
1909080S10062 1909 20 SI MM NOT_NAMED 1909-03-23 18:00:00 NR -12.1573 55.1881 main 579 524 _____P________ -1 -12.1573 55.1881 99 10 254
1909080S10062 1909 20 SI MM NOT_NAMED 1909-03-23 21:00:00 NR -12.2973 54.6863 main 524 469 _____P________ -1 -12.2973 54.6863 99 10 254
1909080S10062 1909 20 SI MM NOT_NAMED 1909-03-24 00:00:00 NR -12.4353 54.2019 main 469 421 _____P________ -1 -12.4353 54.2019 99 10 254
1909080S10062 1909 20 SI MM NOT_NAMED 1909-03-24 03:00:00 NR -12.5699 53.7386 main 410 366 _____P________ -1 -12.5699 53.7386 99 9 253
1909080S10062 1909 20 SI MM NOT_NAMED 1909-03-24 06:00:00 NR -12.7000 53.3000 reunion main 366 321 _____O________ -1 -12.7000 53.3000 99 9.90000 9 253
1909080S10062 1909 20 SI MM NOT_NAMED 1909-03-24 09:00:00 NR -12.8327 52.8579 main 321 274 _____P________ -1 -12.8327 52.8579 99 9 253
1909080S10062 1909 20 SI MM NOT_NAMED 1909-03-24 12:00:00 NR -12.9629 52.4368 main 263 229 _____P________ -1 -12.9629 52.4368 99 8 252
1909080S10062 1909 20 SI MM NOT_NAMED 1909-03-24 15:00:00 NR -13.0890 52.0393 main 219 185 _____P________ -1 -13.0890 52.0393 99 8 252
1909080S10062 1909 20 SI MM NOT_NAMED 1909-03-24 18:00:00 NR -13.2092 51.6680 main 185 141 _____P________ -1 -13.2092 51.6680 99 7 251
1909080S10062 1909 20 SI MM NOT_NAMED 1909-03-24 21:00:00 NR -13.3221 51.3257 main 141 107 _____P________ -1 -13.3221 51.3257 99 7 251
1909080S10062 1909 20 SI MM NOT_NAMED 1909-03-25 00:00:00 NR -13.4259 51.0151 main 107 82 _____P________ -1 -13.4259 51.0151 99 6 251
1909080S10062 1909 20 SI MM NOT_NAMED 1909-03-25 03:00:00 NR -13.5191 50.7389 main 73 48 _____P________ -1 -13.5191 50.7389 99 5 251
1909080S10062 1909 20 SI MM NOT_NAMED 1909-03-25 06:00:00 NR -13.6000 50.5000 reunion main 48 24 _____O________ -1 -13.6000 50.5000 99 9.90000 5 251
1909080S10062 1909 20 SI MM NOT_NAMED 1909-03-25 09:00:00 NR -13.6676 50.2998 main 24 10 _____P________ -1 -13.6676 50.2998 99 4 251
1909080S10062 1909 20 SI MM NOT_NAMED 1909-03-25 12:00:00 NR -13.7231 50.1346 main 10 0 _____P________ -1 -13.7231 50.1346 99 3 251
1909080S10062 1909 20 SI MM NOT_NAMED 1909-03-25 15:00:00 NR -13.7683 49.9995 main 0 0 _____P________ -1 -13.7683 49.9995 99 3 251
1909080S10062 1909 20 SI MM NOT_NAMED 1909-03-25 18:00:00 NR -13.8049 49.8895 main 0 0 _____P________ -1 -13.8049 49.8895 99 2 251
1909080S10062 1909 20 SI MM NOT_NAMED 1909-03-25 21:00:00 NR -13.8346 49.7996 main 0 0 _____P________ -1 -13.8346 49.7996 99 2 251
1909080S10062 1909 20 SI MM NOT_NAMED 1909-03-26 00:00:00 NR -13.8593 49.7247 main 0 0 _____P________ -1 -13.8593 49.7247 99 1 251
1909080S10062 1909 20 SI MM NOT_NAMED 1909-03-26 03:00:00 NR -13.8805 49.6598 main 0 0 _____P________ -1 -13.8805 49.6598 99 1 251
1909080S10062 1909 20 SI MM NOT_NAMED 1909-03-26 06:00:00 NR -13.9000 49.6000 reunion main 0 _____O________ -1 -13.9000 49.6000 99 9.90000 1 250

IBTrACS Databaseについて

本データベースは、米国NOAAが公開する1842年以降の世界の熱帯低気圧のベストトラックデータアーカイブInternational Best Track Archive for Climate Stewardship (IBTrACS)を、ウェブで閲覧しやすい形式に変換したものです。

最終更新日:2021-10-25